BAW43U EGLL-LFPG
Flight info
| Callsign | BAW43U |
|---|---|
| Flight time | N/A |
| Altitude | 31000 |
| Route | MODMI M185 MID UL612 BOGNA DCT HARDY UM605 BIBAX |
| Aircraft | A321/M-SDE3FGHIRWY/LB1 |
Departure
| Time | 2026-05-07 16:14 |
|---|---|
| Airport | London Heathrow Airport (EGLL) |
Arrival
| Time | N/A |
|---|---|
| Airport | Charles de Gaulle International Airport (LFPG) |
| Time | Latitude | Longitude | Altitude | Speed | Heading |
|---|---|---|---|---|---|
| 2026-05-07 15:55 | 51.46831 | -0.48680 | 86 ft | 0 kts | 180° |
| 2026-05-07 16:05 | 51.46837 | -0.48680 | 89 ft | 4 kts | 179° |
| 2026-05-07 16:05 | 51.46863 | -0.48679 | 87 ft | 3 kts | 194° |
| 2026-05-07 16:05 | 51.46876 | -0.48667 | 92 ft | 3 kts | 249° |
| 2026-05-07 16:06 | 51.46880 | -0.48636 | 87 ft | 3 kts | 271° |
| 2026-05-07 16:06 | 51.46879 | -0.48613 | 87 ft | 2 kts | 274° |
| 2026-05-07 16:06 | 51.46879 | -0.48595 | 87 ft | 2 kts | 274° |
| 2026-05-07 16:06 | 51.46878 | -0.48591 | 86 ft | 0 kts | 274° |
| 2026-05-07 16:08 | 51.46878 | -0.48605 | 89 ft | 0 kts | 268° |
| 2026-05-07 16:09 | 51.46878 | -0.48620 | 88 ft | 4 kts | 269° |
| 2026-05-07 16:09 | 51.46877 | -0.48686 | 86 ft | 8 kts | 269° |
| 2026-05-07 16:09 | 51.46842 | -0.48760 | 88 ft | 11 kts | 185° |
| 2026-05-07 16:10 | 51.46770 | -0.48749 | 88 ft | 12 kts | 175° |
| 2026-05-07 16:10 | 51.46680 | -0.48746 | 87 ft | 15 kts | 181° |
| 2026-05-07 16:10 | 51.46609 | -0.48763 | 90 ft | 6 kts | 197° |
| 2026-05-07 16:10 | 51.46602 | -0.48766 | 89 ft | 3 kts | 197° |
| 2026-05-07 16:11 | 51.46587 | -0.48774 | 88 ft | 0 kts | 198° |
| 2026-05-07 16:13 | 51.46573 | -0.48781 | 90 ft | 7 kts | 198° |
| 2026-05-07 16:13 | 51.46491 | -0.48758 | 87 ft | 12 kts | 136° |
| 2026-05-07 16:13 | 51.46480 | -0.48663 | 87 ft | 0 kts | 90° |
| 2026-05-07 16:13 | 51.46480 | -0.48654 | 87 ft | 7 kts | 90° |
| 2026-05-07 16:14 | 51.46480 | -0.48150 | 88 ft | 96 kts | 90° |
| 2026-05-07 16:14 | 51.46485 | -0.46592 | 99 ft | 177 kts | 89° |
| 2026-05-07 16:14 | 51.46507 | -0.44624 | 1049 ft | 173 kts | 89° |
| 2026-05-07 16:14 | 51.46517 | -0.42632 | 2020 ft | 184 kts | 92° |
| 2026-05-07 16:15 | 51.46317 | -0.40605 | 2911 ft | 190 kts | 112° |
| 2026-05-07 16:15 | 51.45693 | -0.38599 | 3452 ft | 212 kts | 122° |
| 2026-05-07 16:15 | 51.44650 | -0.36840 | 3980 ft | 223 kts | 144° |
| 2026-05-07 16:15 | 51.43288 | -0.35619 | 4680 ft | 226 kts | 158° |
| 2026-05-07 16:16 | 51.41729 | -0.35002 | 5156 ft | 243 kts | 175° |
| 2026-05-07 16:16 | 51.39976 | -0.35337 | 5725 ft | 266 kts | 197° |
| 2026-05-07 16:16 | 51.38285 | -0.36601 | 5969 ft | 269 kts | 208° |
| 2026-05-07 16:16 | 51.36628 | -0.37983 | 6004 ft | 268 kts | 207° |
| 2026-05-07 16:17 | 51.34976 | -0.39357 | 6007 ft | 268 kts | 209° |
| 2026-05-07 16:17 | 51.33570 | -0.41271 | 6013 ft | 268 kts | 234° |
| 2026-05-07 16:17 | 51.32764 | -0.43981 | 6007 ft | 271 kts | 251° |
| 2026-05-07 16:17 | 51.32456 | -0.46944 | 6008 ft | 272 kts | 269° |
| 2026-05-07 16:18 | 51.32447 | -0.49971 | 6008 ft | 273 kts | 271° |
| 2026-05-07 16:18 | 51.32468 | -0.53004 | 6008 ft | 272 kts | 271° |
| 2026-05-07 16:18 | 51.32485 | -0.55004 | 6009 ft | 273 kts | 271° |
| 2026-05-07 16:18 | 51.32520 | -0.59058 | 6008 ft | 272 kts | 271° |
| 2026-05-07 16:19 | 51.32572 | -0.62080 | 6007 ft | 272 kts | 276° |
| 2026-05-07 16:19 | 51.32855 | -0.64023 | 5948 ft | 270 kts | 291° |
| 2026-05-07 16:19 | 51.33655 | -0.67811 | 5773 ft | 269 kts | 276° |
| 2026-05-07 16:19 | 51.33768 | -0.70791 | 5583 ft | 266 kts | 271° |
| 2026-05-07 16:20 | 51.33809 | -0.72740 | 5285 ft | 265 kts | 271° |
| 2026-05-07 16:20 | 51.33860 | -0.75676 | 4842 ft | 263 kts | 271° |
| 2026-05-07 16:20 | 51.34074 | -0.78566 | 4402 ft | 262 kts | 287° |
| 2026-05-07 16:20 | 51.35357 | -0.81707 | 4084 ft | 251 kts | 319° |
| 2026-05-07 16:21 | 51.36319 | -0.82695 | 4031 ft | 237 kts | 334° |
| 2026-05-07 16:21 | 51.37817 | -0.83313 | 3784 ft | 214 kts | 355° |
| 2026-05-07 16:21 | 51.39267 | -0.83059 | 3212 ft | 209 kts | 16° |
| 2026-05-07 16:21 | 51.40567 | -0.82009 | 3008 ft | 212 kts | 32° |
| 2026-05-07 16:22 | 51.41826 | -0.80761 | 3006 ft | 214 kts | 32° |
| 2026-05-07 16:22 | 51.42992 | -0.79626 | 3005 ft | 214 kts | 31° |
| 2026-05-07 16:22 | 51.43996 | -0.78656 | 3008 ft | 214 kts | 31° |
| 2026-05-07 16:23 | 51.45196 | -0.77499 | 2997 ft | 188 kts | 31° |
| 2026-05-07 16:23 | 51.46293 | -0.76407 | 3023 ft | 189 kts | 36° |
| 2026-05-07 16:23 | 51.47173 | -0.74848 | 3013 ft | 185 kts | 59° |
| 2026-05-07 16:23 | 51.47591 | -0.72979 | 2997 ft | 176 kts | 82° |
| 2026-05-07 16:24 | 51.47636 | -0.71080 | 2852 ft | 172 kts | 91° |
| 2026-05-07 16:24 | 51.47646 | -0.69151 | 2653 ft | 170 kts | 91° |
| 2026-05-07 16:24 | 51.47656 | -0.67287 | 2433 ft | 169 kts | 91° |
| 2026-05-07 16:24 | 51.47667 | -0.65416 | 2211 ft | 167 kts | 90° |
| 2026-05-07 16:25 | 51.47677 | -0.63662 | 1988 ft | 150 kts | 91° |
| 2026-05-07 16:25 | 51.47686 | -0.62036 | 1789 ft | 143 kts | 93° |
| 2026-05-07 16:25 | 51.47694 | -0.60453 | 1603 ft | 141 kts | 91° |
| 2026-05-07 16:25 | 51.47701 | -0.58883 | 1410 ft | 140 kts | 92° |
| 2026-05-07 16:26 | 51.47709 | -0.57329 | 1229 ft | 140 kts | 91° |
| 2026-05-07 16:26 | 51.47716 | -0.55783 | 1023 ft | 138 kts | 92° |
| 2026-05-07 16:26 | 51.47716 | -0.54253 | 818 ft | 135 kts | 91° |
| 2026-05-07 16:26 | 51.47732 | -0.52779 | 635 ft | 130 kts | 90° |
| 2026-05-07 16:27 | 51.47742 | -0.51344 | 459 ft | 128 kts | 91° |
| 2026-05-07 16:27 | 51.47744 | -0.49911 | 346 ft | 128 kts | 89° |
| 2026-05-07 16:27 | 51.47757 | -0.48505 | 158 ft | 125 kts | 90° |
| 2026-05-07 16:27 | 51.47755 | -0.47178 | 92 ft | 108 kts | 90° |
| 2026-05-07 16:28 | 51.47759 | -0.46215 | 89 ft | 49 kts | 89° |
| 2026-05-07 16:28 | 51.47760 | -0.45920 | 86 ft | 35 kts | 90° |
| 2026-05-07 16:28 | 51.47754 | -0.45510 | 89 ft | 14 kts | 116° |
| 2026-05-07 16:28 | 51.47689 | -0.45474 | 88 ft | 11 kts | 174° |